Fairmont Municipal Airport


Codes: KFRM/FRM
Name: Fairmont Municipal Airport
City: Fairmont
Country: United States
Elevation: 1162 ft.
Wikipedia:

Photos at Fairmont Municipal Airport


   Photos courtesy of SpottingLog. You can add your own sightings and photos by signing up for a free trial today.



No photos found.

Weather at Fairmont Municipal Airport


Time (UTC)DescriptionTempratureWindCloud coverageVisibilityPressureHumidity
23-May-2024 21:00Clear Sky24°C16 mph, S1%10000m1009hPa44%
24-May-2024 00:00Few Clouds23°C16 mph, S11%10000m1007hPa52%
24-May-2024 03:00Few Clouds18°C13 mph, SE24%10000m1007hPa71%
24-May-2024 06:00Scattered Clouds17°C16 mph, SE42%10000m1004hPa76%
24-May-2024 09:00Light Rain17°C18 mph, SE100%5970m1001hPa92%
24-May-2024 12:00Moderate Rain17°C18 mph, SE100%10000m1000hPa93%
24-May-2024 15:00Light Rain17°C22 mph, S100%10000m999hPa90%
24-May-2024 18:00Light Rain18°C16 mph, W100%10000m1001hPa56%
24-May-2024 21:00Clear Sky19°C20 mph, W6%10000m1002hPa51%
25-May-2024 00:00Clear Sky15°C18 mph, NW4%10000m1005hPa61%
25-May-2024 03:00Clear Sky11°C11 mph, NW0%10000m1009hPa68%
25-May-2024 06:00Clear Sky9°C2 mph, W0%10000m1010hPa79%
25-May-2024 09:00Clear Sky9°C4 mph, SW0%10000m1011hPa80%
25-May-2024 12:00Clear Sky10°C7 mph, S1%10000m1011hPa79%
25-May-2024 15:00Scattered Clouds16°C11 mph, S37%10000m1010hPa55%
25-May-2024 18:00Broken Clouds21°C13 mph, SW58%10000m1009hPa44%
25-May-2024 21:00Overcast Clouds21°C13 mph, SE100%10000m1007hPa45%
26-May-2024 00:00Overcast Clouds20°C11 mph, SE100%10000m1006hPa58%
26-May-2024 03:00Overcast Clouds17°C13 mph, SE100%10000m1005hPa71%
26-May-2024 06:00Broken Clouds15°C11 mph, SE81%10000m1003hPa81%
26-May-2024 09:00Light Rain15°C11 mph, SE66%2201m1001hPa85%
26-May-2024 12:00Light Rain14°C11 mph, E83%10000m999hPa91%
26-May-2024 15:00Light Rain14°C7 mph, E100%10000m1000hPa90%
26-May-2024 18:00Moderate Rain13°C9 mph, E100%3244m1000hPa96%
26-May-2024 21:00Light Rain14°C9 mph, N100%10000m1001hPa90%
27-May-2024 00:00Overcast Clouds12°C9 mph, N100%10000m1004hPa88%
27-May-2024 03:00Overcast Clouds11°C9 mph, NW98%10000m1006hPa90%
27-May-2024 06:00Broken Clouds10°C9 mph, N76%10000m1006hPa94%
27-May-2024 09:00Few Clouds9°C7 mph, W21%10000m1008hPa96%
27-May-2024 12:00Few Clouds10°C11 mph, NW15%10000m1010hPa90%
27-May-2024 15:00Scattered Clouds15°C13 mph, NW39%10000m1011hPa67%
27-May-2024 18:00Scattered Clouds19°C13 mph, NW27%10000m1012hPa54%
27-May-2024 21:00Broken Clouds21°C13 mph, NW52%10000m1011hPa46%
28-May-2024 00:00Broken Clouds18°C9 mph, NW60%10000m1012hPa64%
28-May-2024 03:00Clear Sky14°C4 mph, NW0%10000m1013hPa75%
28-May-2024 06:00Scattered Clouds13°C7 mph, SW35%10000m1012hPa82%
28-May-2024 09:00Light Rain12°C9 mph, SW33%10000m1011hPa90%
28-May-2024 12:00Few Clouds12°C11 mph, NW18%10000m1013hPa90%
28-May-2024 15:00Light Rain13°C18 mph, NW52%10000m1015hPa75%
28-May-2024 18:00Broken Clouds14°C18 mph, NW72%10000m1015hPa57%